sensor_id;sensor_type;location;lat;lon;timestamp;temperature;humidity
52725;DHT22;38621;52.830;6.914;2023-12-04T00:00:47;0.00;99.90
52725;DHT22;38621;52.830;6.914;2023-12-04T00:03:13;0.00;99.90
52725;DHT22;38621;52.830;6.914;2023-12-04T00:05:38;0.00;99.90
52725;DHT22;38621;52.830;6.914;2023-12-04T00:08:07;0.00;99.90
52725;DHT22;38621;52.830;6.914;2023-12-04T00:10:33;0.00;99.90
52725;DHT22;38621;52.830;6.914;2023-12-04T00:12:58;0.00;99.90
52725;DHT22;38621;52.830;6.914;2023-12-04T00:15:24;0.00;99.90
52725;DHT22;38621;52.830;6.914;2023-12-04T00:17:50;0.00;99.90
52725;DHT22;38621;52.830;6.914;2023-12-04T00:20:15;0.00;99.90
52725;DHT22;38621;52.830;6.914;2023-12-04T00:22:41;0.00;99.90
52725;DHT22;38621;52.830;6.914;2023-12-04T00:25:07;0.00;99.90
52725;DHT22;38621;52.830;6.914;2023-12-04T00:27:33;0.00;99.90
52725;DHT22;38621;52.830;6.914;2023-12-04T00:29:59;0.00;99.90
52725;DHT22;38621;52.830;6.914;2023-12-04T00:32:25;0.00;99.90
52725;DHT22;38621;52.830;6.914;2023-12-04T00:34:50;0.00;99.90
52725;DHT22;38621;52.830;6.914;2023-12-04T00:37:16;0.00;99.90
52725;DHT22;38621;52.830;6.914;2023-12-04T00:39:42;0.00;99.90
52725;DHT22;38621;52.830;6.914;2023-12-04T00:42:07;0.00;99.90
52725;DHT22;38621;52.830;6.914;2023-12-04T00:44:33;0.00;99.90
52725;DHT22;38621;52.830;6.914;2023-12-04T00:46:59;0.00;99.90
52725;DHT22;38621;52.830;6.914;2023-12-04T00:49:24;0.00;99.90
52725;DHT22;38621;52.830;6.914;2023-12-04T00:51:50;0.00;99.90
52725;DHT22;38621;52.830;6.914;2023-12-04T00:54:16;0.00;99.90
52725;DHT22;38621;52.830;6.914;2023-12-04T00:56:42;0.00;99.90
52725;DHT22;38621;52.830;6.914;2023-12-04T00:59:08;0.00;99.90
52725;DHT22;38621;52.830;6.914;2023-12-04T01:01:36;0.00;99.90
52725;DHT22;38621;52.830;6.914;2023-12-04T01:04:02;0.00;99.90
52725;DHT22;38621;52.830;6.914;2023-12-04T01:06:27;0.00;99.90
52725;DHT22;38621;52.830;6.914;2023-12-04T01:08:55;0.00;99.90
52725;DHT22;38621;52.830;6.914;2023-12-04T01:11:21;0.40;99.90
52725;DHT22;38621;52.830;6.914;2023-12-04T01:13:48;0.00;99.90
52725;DHT22;38621;52.830;6.914;2023-12-04T01:16:14;0.50;99.90
52725;DHT22;38621;52.830;6.914;2023-12-04T01:18:40;0.00;99.90
52725;DHT22;38621;52.830;6.914;2023-12-04T01:21:07;0.00;99.90
52725;DHT22;38621;52.830;6.914;2023-12-04T01:23:35;-0.10;99.90
52725;DHT22;38621;52.830;6.914;2023-12-04T01:26:01;0.10;99.90
52725;DHT22;38621;52.830;6.914;2023-12-04T01:28:27;0.00;99.90
52725;DHT22;38621;52.830;6.914;2023-12-04T01:30:52;0.10;99.90
52725;DHT22;38621;52.830;6.914;2023-12-04T01:33:18;0.00;99.90
52725;DHT22;38621;52.830;6.914;2023-12-04T01:35:44;0.10;99.90
52725;DHT22;38621;52.830;6.914;2023-12-04T01:38:10;0.10;99.90
52725;DHT22;38621;52.830;6.914;2023-12-04T01:40:35;0.10;99.90
52725;DHT22;38621;52.830;6.914;2023-12-04T01:43:01;0.10;99.90
52725;DHT22;38621;52.830;6.914;2023-12-04T01:45:27;0.10;99.90
52725;DHT22;38621;52.830;6.914;2023-12-04T01:47:53;0.10;99.90
52725;DHT22;38621;52.830;6.914;2023-12-04T01:50:20;0.10;99.90
52725;DHT22;38621;52.830;6.914;2023-12-04T01:52:46;0.10;99.90
52725;DHT22;38621;52.830;6.914;2023-12-04T01:55:13;0.10;99.90
52725;DHT22;38621;52.830;6.914;2023-12-04T01:57:40;0.10;99.90
52725;DHT22;38621;52.830;6.914;2023-12-04T02:00:06;0.10;99.90
52725;DHT22;38621;52.830;6.914;2023-12-04T02:02:41;0.10;99.90
52725;DHT22;38621;52.830;6.914;2023-12-04T02:05:11;0.10;99.90
52725;DHT22;38621;52.830;6.914;2023-12-04T02:07:37;0.10;99.90
52725;DHT22;38621;52.830;6.914;2023-12-04T02:10:03;0.20;99.90
52725;DHT22;38621;52.830;6.914;2023-12-04T02:12:29;0.10;99.90
52725;DHT22;38621;52.830;6.914;2023-12-04T02:14:56;0.20;99.90
52725;DHT22;38621;52.830;6.914;2023-12-04T02:17:23;0.60;99.90
52725;DHT22;38621;52.830;6.914;2023-12-04T02:19:50;0.20;99.90
52725;DHT22;38621;52.830;6.914;2023-12-04T02:22:16;0.20;99.90
52725;DHT22;38621;52.830;6.914;2023-12-04T02:24:44;0.20;99.90
52725;DHT22;38621;52.830;6.914;2023-12-04T02:27:20;0.20;99.90
52725;DHT22;38621;52.830;6.914;2023-12-04T02:29:52;0.20;99.90
52725;DHT22;38621;52.830;6.914;2023-12-04T02:32:19;0.20;99.90
52725;DHT22;38621;52.830;6.914;2023-12-04T02:34:47;0.20;99.90
52725;DHT22;38621;52.830;6.914;2023-12-04T02:37:15;0.20;99.90
52725;DHT22;38621;52.830;6.914;2023-12-04T02:39:42;0.20;99.90
52725;DHT22;38621;52.830;6.914;2023-12-04T02:42:08;0.30;99.90
52725;DHT22;38621;52.830;6.914;2023-12-04T02:44:34;0.30;99.90
52725;DHT22;38621;52.830;6.914;2023-12-04T02:47:00;0.30;99.90
52725;DHT22;38621;52.830;6.914;2023-12-04T02:49:26;0.30;99.90
52725;DHT22;38621;52.830;6.914;2023-12-04T02:51:51;0.30;99.90
52725;DHT22;38621;52.830;6.914;2023-12-04T02:54:17;0.70;99.90
52725;DHT22;38621;52.830;6.914;2023-12-04T02:56:43;0.30;99.90
52725;DHT22;38621;52.830;6.914;2023-12-04T02:59:08;0.50;99.90
52725;DHT22;38621;52.830;6.914;2023-12-04T03:01:34;0.30;99.90
52725;DHT22;38621;52.830;6.914;2023-12-04T03:04:00;0.40;99.90
52725;DHT22;38621;52.830;6.914;2023-12-04T03:06:25;0.40;99.90
52725;DHT22;38621;52.830;6.914;2023-12-04T03:08:51;0.30;99.90
52725;DHT22;38621;52.830;6.914;2023-12-04T03:11:17;0.40;99.90
52725;DHT22;38621;52.830;6.914;2023-12-04T03:13:43;0.50;99.90
52725;DHT22;38621;52.830;6.914;2023-12-04T03:16:16;0.30;99.90
52725;DHT22;38621;52.830;6.914;2023-12-04T03:18:42;0.30;99.90
52725;DHT22;38621;52.830;6.914;2023-12-04T03:21:08;0.30;99.90
52725;DHT22;38621;52.830;6.914;2023-12-04T03:23:34;0.30;99.90
52725;DHT22;38621;52.830;6.914;2023-12-04T03:25:59;0.90;99.90
52725;DHT22;38621;52.830;6.914;2023-12-04T03:28:25;0.30;99.90
52725;DHT22;38621;52.830;6.914;2023-12-04T03:30:51;0.30;99.90
52725;DHT22;38621;52.830;6.914;2023-12-04T03:33:16;0.30;99.90
52725;DHT22;38621;52.830;6.914;2023-12-04T03:35:42;0.30;99.90
52725;DHT22;38621;52.830;6.914;2023-12-04T03:38:08;0.30;99.90
52725;DHT22;38621;52.830;6.914;2023-12-04T03:40:34;0.30;99.90
52725;DHT22;38621;52.830;6.914;2023-12-04T03:42:59;0.30;99.90
52725;DHT22;38621;52.830;6.914;2023-12-04T03:45:25;0.30;99.90
52725;DHT22;38621;52.830;6.914;2023-12-04T03:47:51;0.30;99.90
52725;DHT22;38621;52.830;6.914;2023-12-04T03:50:17;0.30;99.90
52725;DHT22;38621;52.830;6.914;2023-12-04T03:52:42;0.30;99.90
52725;DHT22;38621;52.830;6.914;2023-12-04T03:55:08;0.30;99.90
52725;DHT22;38621;52.830;6.914;2023-12-04T03:57:34;0.30;99.90
52725;DHT22;38621;52.830;6.914;2023-12-04T04:00:00;-1.10;99.90
52725;DHT22;38621;52.830;6.914;2023-12-04T04:02:26;0.20;99.90
52725;DHT22;38621;52.830;6.914;2023-12-04T04:04:51;0.30;99.90
52725;DHT22;38621;52.830;6.914;2023-12-04T04:07:17;0.20;99.90
52725;DHT22;38621;52.830;6.914;2023-12-04T04:09:43;0.20;99.90
52725;DHT22;38621;52.830;6.914;2023-12-04T04:12:09;0.40;99.90
52725;DHT22;38621;52.830;6.914;2023-12-04T04:14:35;0.20;99.90
52725;DHT22;38621;52.830;6.914;2023-12-04T04:17:01;0.20;99.90
52725;DHT22;38621;52.830;6.914;2023-12-04T04:19:26;0.20;99.90
52725;DHT22;38621;52.830;6.914;2023-12-04T04:21:52;0.20;99.90
52725;DHT22;38621;52.830;6.914;2023-12-04T04:24:18;0.20;99.90
52725;DHT22;38621;52.830;6.914;2023-12-04T04:26:43;0.30;99.90
52725;DHT22;38621;52.830;6.914;2023-12-04T04:29:09;0.20;99.90
52725;DHT22;38621;52.830;6.914;2023-12-04T04:31:35;0.30;99.90
52725;DHT22;38621;52.830;6.914;2023-12-04T04:34:01;0.80;99.90
52725;DHT22;38621;52.830;6.914;2023-12-04T04:36:26;0.70;99.90
52725;DHT22;38621;52.830;6.914;2023-12-04T04:38:52;0.90;99.90
52725;DHT22;38621;52.830;6.914;2023-12-04T04:41:18;0.30;99.90
52725;DHT22;38621;52.830;6.914;2023-12-04T04:43:43;0.30;99.90
52725;DHT22;38621;52.830;6.914;2023-12-04T04:46:09;0.30;99.90
52725;DHT22;38621;52.830;6.914;2023-12-04T04:48:35;0.30;99.90
52725;DHT22;38621;52.830;6.914;2023-12-04T04:51:00;0.30;99.90
52725;DHT22;38621;52.830;6.914;2023-12-04T04:53:26;0.50;99.90
52725;DHT22;38621;52.830;6.914;2023-12-04T04:55:52;0.30;99.90
52725;DHT22;38621;52.830;6.914;2023-12-04T04:58:18;0.30;99.90
52725;DHT22;38621;52.830;6.914;2023-12-04T05:00:44;0.30;99.90
52725;DHT22;38621;52.830;6.914;2023-12-04T05:03:10;0.30;99.90
52725;DHT22;38621;52.830;6.914;2023-12-04T05:05:36;0.30;99.90
52725;DHT22;38621;52.830;6.914;2023-12-04T05:08:02;0.30;99.90
52725;DHT22;38621;52.830;6.914;2023-12-04T05:10:27;0.30;99.90
52725;DHT22;38621;52.830;6.914;2023-12-04T05:12:53;0.30;99.90
52725;DHT22;38621;52.830;6.914;2023-12-04T05:15:19;0.40;99.90
52725;DHT22;38621;52.830;6.914;2023-12-04T05:17:44;0.30;99.90
52725;DHT22;38621;52.830;6.914;2023-12-04T05:20:10;0.30;99.90
52725;DHT22;38621;52.830;6.914;2023-12-04T05:22:36;0.40;99.90
52725;DHT22;38621;52.830;6.914;2023-12-04T05:25:02;0.30;99.90
52725;DHT22;38621;52.830;6.914;2023-12-04T05:27:28;0.30;99.90
52725;DHT22;38621;52.830;6.914;2023-12-04T05:29:53;0.30;99.90
52725;DHT22;38621;52.830;6.914;2023-12-04T05:32:19;0.40;99.90
52725;DHT22;38621;52.830;6.914;2023-12-04T05:34:45;0.30;99.90
52725;DHT22;38621;52.830;6.914;2023-12-04T05:37:10;0.30;99.90
52725;DHT22;38621;52.830;6.914;2023-12-04T05:39:36;0.50;99.90
52725;DHT22;38621;52.830;6.914;2023-12-04T05:42:02;0.30;99.90
52725;DHT22;38621;52.830;6.914;2023-12-04T05:44:28;0.40;99.90
52725;DHT22;38621;52.830;6.914;2023-12-04T05:46:54;0.60;99.90
52725;DHT22;38621;52.830;6.914;2023-12-04T05:49:20;0.40;99.90
52725;DHT22;38621;52.830;6.914;2023-12-04T05:51:46;0.40;99.90
52725;DHT22;38621;52.830;6.914;2023-12-04T05:54:11;1.10;99.90
52725;DHT22;38621;52.830;6.914;2023-12-04T05:56:37;0.40;99.90
52725;DHT22;38621;52.830;6.914;2023-12-04T05:59:03;0.40;99.90
52725;DHT22;38621;52.830;6.914;2023-12-04T06:01:28;0.40;99.90
52725;DHT22;38621;52.830;6.914;2023-12-04T06:03:54;0.50;99.90
52725;DHT22;38621;52.830;6.914;2023-12-04T06:06:20;0.70;99.90
52725;DHT22;38621;52.830;6.914;2023-12-04T06:08:45;0.50;99.90
52725;DHT22;38621;52.830;6.914;2023-12-04T06:11:11;0.50;99.90
52725;DHT22;38621;52.830;6.914;2023-12-04T06:13:37;0.50;99.90
52725;DHT22;38621;52.830;6.914;2023-12-04T06:16:03;0.50;99.90
52725;DHT22;38621;52.830;6.914;2023-12-04T06:18:28;0.50;99.90
52725;DHT22;38621;52.830;6.914;2023-12-04T06:20:54;0.50;99.90
52725;DHT22;38621;52.830;6.914;2023-12-04T06:23:20;0.50;99.90
52725;DHT22;38621;52.830;6.914;2023-12-04T06:25:46;0.50;99.90
52725;DHT22;38621;52.830;6.914;2023-12-04T06:28:12;0.50;99.90
52725;DHT22;38621;52.830;6.914;2023-12-04T06:30:38;0.50;99.90
52725;DHT22;38621;52.830;6.914;2023-12-04T06:33:04;0.50;99.90
52725;DHT22;38621;52.830;6.914;2023-12-04T06:35:30;0.50;99.90
52725;DHT22;38621;52.830;6.914;2023-12-04T06:38:01;0.60;99.90
52725;DHT22;38621;52.830;6.914;2023-12-04T06:40:30;1.00;99.90
52725;DHT22;38621;52.830;6.914;2023-12-04T06:42:57;0.50;99.90
52725;DHT22;38621;52.830;6.914;2023-12-04T06:45:23;0.50;99.90
52725;DHT22;38621;52.830;6.914;2023-12-04T06:47:50;0.50;99.90
52725;DHT22;38621;52.830;6.914;2023-12-04T06:50:16;0.50;99.90
52725;DHT22;38621;52.830;6.914;2023-12-04T06:52:42;0.50;99.90
52725;DHT22;38621;52.830;6.914;2023-12-04T06:55:08;0.50;99.90
52725;DHT22;38621;52.830;6.914;2023-12-04T06:57:34;0.40;99.90
52725;DHT22;38621;52.830;6.914;2023-12-04T07:00:00;0.40;99.90
52725;DHT22;38621;52.830;6.914;2023-12-04T07:02:25;0.90;99.90
52725;DHT22;38621;52.830;6.914;2023-12-04T07:04:51;0.40;99.90
52725;DHT22;38621;52.830;6.914;2023-12-04T07:07:17;0.40;99.90
52725;DHT22;38621;52.830;6.914;2023-12-04T07:09:43;0.40;99.90
52725;DHT22;38621;52.830;6.914;2023-12-04T07:12:08;0.40;99.90
52725;DHT22;38621;52.830;6.914;2023-12-04T07:14:34;0.40;99.90
52725;DHT22;38621;52.830;6.914;2023-12-04T07:17:00;0.50;99.90
52725;DHT22;38621;52.830;6.914;2023-12-04T07:19:26;0.40;99.90
52725;DHT22;38621;52.830;6.914;2023-12-04T07:21:52;0.40;99.90
52725;DHT22;38621;52.830;6.914;2023-12-04T07:24:18;0.40;99.90
52725;DHT22;38621;52.830;6.914;2023-12-04T07:26:44;1.20;99.90
52725;DHT22;38621;52.830;6.914;2023-12-04T07:29:10;1.00;99.90
52725;DHT22;38621;52.830;6.914;2023-12-04T07:31:36;0.40;99.90
52725;DHT22;38621;52.830;6.914;2023-12-04T07:34:03;0.40;99.90
52725;DHT22;38621;52.830;6.914;2023-12-04T07:36:29;0.40;99.90
52725;DHT22;38621;52.830;6.914;2023-12-04T07:38:55;0.40;99.90
52725;DHT22;38621;52.830;6.914;2023-12-04T07:41:21;0.40;99.90
52725;DHT22;38621;52.830;6.914;2023-12-04T07:43:47;0.30;99.90
52725;DHT22;38621;52.830;6.914;2023-12-04T07:46:13;0.30;99.90
52725;DHT22;38621;52.830;6.914;2023-12-04T07:48:39;0.30;99.90
52725;DHT22;38621;52.830;6.914;2023-12-04T07:51:06;0.40;99.90
52725;DHT22;38621;52.830;6.914;2023-12-04T07:53:32;0.40;99.90
52725;DHT22;38621;52.830;6.914;2023-12-04T07:56:01;0.30;99.90
52725;DHT22;38621;52.830;6.914;2023-12-04T07:58:28;0.30;99.90
52725;DHT22;38621;52.830;6.914;2023-12-04T08:00:54;0.70;99.90
52725;DHT22;38621;52.830;6.914;2023-12-04T08:03:20;0.40;99.90
52725;DHT22;38621;52.830;6.914;2023-12-04T08:05:45;0.40;99.90
52725;DHT22;38621;52.830;6.914;2023-12-04T08:08:11;0.70;99.90
52725;DHT22;38621;52.830;6.914;2023-12-04T08:10:37;0.40;99.90
52725;DHT22;38621;52.830;6.914;2023-12-04T08:13:03;0.80;99.90
52725;DHT22;38621;52.830;6.914;2023-12-04T08:15:28;0.40;99.90
52725;DHT22;38621;52.830;6.914;2023-12-04T08:17:54;0.50;99.90
52725;DHT22;38621;52.830;6.914;2023-12-04T08:20:21;0.50;99.90
52725;DHT22;38621;52.830;6.914;2023-12-04T08:22:48;0.50;99.90
52725;DHT22;38621;52.830;6.914;2023-12-04T08:25:14;0.50;99.90
52725;DHT22;38621;52.830;6.914;2023-12-04T08:27:39;0.60;99.90
52725;DHT22;38621;52.830;6.914;2023-12-04T08:30:05;0.50;99.90
52725;DHT22;38621;52.830;6.914;2023-12-04T08:32:31;0.50;99.90
52725;DHT22;38621;52.830;6.914;2023-12-04T08:34:57;1.40;99.90
52725;DHT22;38621;52.830;6.914;2023-12-04T08:37:23;0.50;99.90
52725;DHT22;38621;52.830;6.914;2023-12-04T08:39:48;0.60;99.90
52725;DHT22;38621;52.830;6.914;2023-12-04T08:42:14;0.60;99.90
52725;DHT22;38621;52.830;6.914;2023-12-04T08:44:40;0.60;99.90
52725;DHT22;38621;52.830;6.914;2023-12-04T08:47:06;0.60;99.90
52725;DHT22;38621;52.830;6.914;2023-12-04T08:49:31;0.60;99.90
52725;DHT22;38621;52.830;6.914;2023-12-04T08:51:59;0.70;99.90
52725;DHT22;38621;52.830;6.914;2023-12-04T08:54:24;0.70;99.90
52725;DHT22;38621;52.830;6.914;2023-12-04T08:56:50;0.70;99.90
52725;DHT22;38621;52.830;6.914;2023-12-04T08:59:16;0.70;99.90
52725;DHT22;38621;52.830;6.914;2023-12-04T09:01:43;0.70;99.90
52725;DHT22;38621;52.830;6.914;2023-12-04T09:04:09;0.70;99.90
52725;DHT22;38621;52.830;6.914;2023-12-04T09:06:35;0.80;99.90
52725;DHT22;38621;52.830;6.914;2023-12-04T09:09:01;1.10;99.90
52725;DHT22;38621;52.830;6.914;2023-12-04T09:11:28;0.90;99.90
52725;DHT22;38621;52.830;6.914;2023-12-04T09:13:54;0.90;99.90
52725;DHT22;38621;52.830;6.914;2023-12-04T09:16:20;0.90;99.90
52725;DHT22;38621;52.830;6.914;2023-12-04T09:18:46;1.00;99.90
52725;DHT22;38621;52.830;6.914;2023-12-04T09:21:12;-0.10;99.90
52725;DHT22;38621;52.830;6.914;2023-12-04T09:23:38;1.50;99.90
52725;DHT22;38621;52.830;6.914;2023-12-04T09:26:03;2.20;99.90
52725;DHT22;38621;52.830;6.914;2023-12-04T09:28:29;1.20;99.90
52725;DHT22;38621;52.830;6.914;2023-12-04T09:30:55;1.20;99.90
52725;DHT22;38621;52.830;6.914;2023-12-04T09:33:21;1.60;99.90
52725;DHT22;38621;52.830;6.914;2023-12-04T09:35:46;1.30;99.90
52725;DHT22;38621;52.830;6.914;2023-12-04T09:38:12;1.30;99.90
52725;DHT22;38621;52.830;6.914;2023-12-04T09:40:38;1.40;99.90
52725;DHT22;38621;52.830;6.914;2023-12-04T09:43:05;1.40;99.90
52725;DHT22;38621;52.830;6.914;2023-12-04T09:45:32;1.60;99.90
52725;DHT22;38621;52.830;6.914;2023-12-04T09:47:58;1.80;99.90
52725;DHT22;38621;52.830;6.914;2023-12-04T09:50:24;1.50;99.90
52725;DHT22;38621;52.830;6.914;2023-12-04T09:52:51;1.50;99.90
52725;DHT22;38621;52.830;6.914;2023-12-04T09:55:18;1.50;99.90
52725;DHT22;38621;52.830;6.914;2023-12-04T09:57:44;1.50;99.90
52725;DHT22;38621;52.830;6.914;2023-12-04T10:00:15;1.70;99.90
52725;DHT22;38621;52.830;6.914;2023-12-04T10:02:41;1.60;99.90
52725;DHT22;38621;52.830;6.914;2023-12-04T10:05:10;1.60;99.90
52725;DHT22;38621;52.830;6.914;2023-12-04T10:07:36;1.90;99.90
52725;DHT22;38621;52.830;6.914;2023-12-04T10:10:03;1.60;99.90
52725;DHT22;38621;52.830;6.914;2023-12-04T10:12:32;1.70;99.90
52725;DHT22;38621;52.830;6.914;2023-12-04T10:15:07;1.80;99.90
52725;DHT22;38621;52.830;6.914;2023-12-04T10:17:39;1.90;99.90
52725;DHT22;38621;52.830;6.914;2023-12-04T10:20:10;2.00;99.90
52725;DHT22;38621;52.830;6.914;2023-12-04T10:22:57;2.10;99.90
52725;DHT22;38621;52.830;6.914;2023-12-04T10:25:29;2.20;99.90
52725;DHT22;38621;52.830;6.914;2023-12-04T10:28:16;2.30;99.90
52725;DHT22;38621;52.830;6.914;2023-12-04T10:30:42;2.30;99.90
52725;DHT22;38621;52.830;6.914;2023-12-04T10:33:09;2.60;99.90
52725;DHT22;38621;52.830;6.914;2023-12-04T10:35:36;2.30;99.90
52725;DHT22;38621;52.830;6.914;2023-12-04T10:38:03;2.50;99.90
52725;DHT22;38621;52.830;6.914;2023-12-04T10:40:33;2.30;99.90
52725;DHT22;38621;52.830;6.914;2023-12-04T10:43:23;2.30;99.90
52725;DHT22;38621;52.830;6.914;2023-12-04T10:45:52;2.20;99.90
52725;DHT22;38621;52.830;6.914;2023-12-04T10:48:20;2.70;99.90
52725;DHT22;38621;52.830;6.914;2023-12-04T10:50:48;2.30;99.90
52725;DHT22;38621;52.830;6.914;2023-12-04T10:53:15;2.40;99.90
52725;DHT22;38621;52.830;6.914;2023-12-04T10:55:42;2.20;99.90
52725;DHT22;38621;52.830;6.914;2023-12-04T10:58:12;2.20;99.90
52725;DHT22;38621;52.830;6.914;2023-12-04T11:00:48;2.50;99.90
52725;DHT22;38621;52.830;6.914;2023-12-04T11:03:36;2.20;99.90
52725;DHT22;38621;52.830;6.914;2023-12-04T11:06:05;2.20;99.90
52725;DHT22;38621;52.830;6.914;2023-12-04T11:08:36;2.20;99.90
52725;DHT22;38621;52.830;6.914;2023-12-04T11:11:03;2.20;99.90
52725;DHT22;38621;52.830;6.914;2023-12-04T11:13:34;2.10;99.90
52725;DHT22;38621;52.830;6.914;2023-12-04T11:16:02;2.10;99.90
52725;DHT22;38621;52.830;6.914;2023-12-04T11:18:32;2.10;99.90
52725;DHT22;38621;52.830;6.914;2023-12-04T11:21:06;2.10;99.90
52725;DHT22;38621;52.830;6.914;2023-12-04T11:23:33;2.50;99.90
52725;DHT22;38621;52.830;6.914;2023-12-04T11:26:00;2.10;99.90
52725;DHT22;38621;52.830;6.914;2023-12-04T11:28:27;2.10;99.90
52725;DHT22;38621;52.830;6.914;2023-12-04T11:30:54;2.10;99.90
52725;DHT22;38621;52.830;6.914;2023-12-04T11:33:23;2.00;99.90
52725;DHT22;38621;52.830;6.914;2023-12-04T11:35:50;2.00;99.90
52725;DHT22;38621;52.830;6.914;2023-12-04T11:38:19;2.00;99.90
52725;DHT22;38621;52.830;6.914;2023-12-04T11:40:48;2.00;99.90
52725;DHT22;38621;52.830;6.914;2023-12-04T11:43:27;2.20;99.90
52725;DHT22;38621;52.830;6.914;2023-12-04T11:46:06;2.10;99.90
52725;DHT22;38621;52.830;6.914;2023-12-04T11:48:32;2.10;99.90
52725;DHT22;38621;52.830;6.914;2023-12-04T11:50:59;2.10;99.90
52725;DHT22;38621;52.830;6.914;2023-12-04T11:53:26;2.60;99.90
52725;DHT22;38621;52.830;6.914;2023-12-04T11:55:55;2.20;99.90
52725;DHT22;38621;52.830;6.914;2023-12-04T11:58:24;2.90;99.90
52725;DHT22;38621;52.830;6.914;2023-12-04T12:00:50;2.30;99.90
52725;DHT22;38621;52.830;6.914;2023-12-04T12:03:17;2.30;99.90
52725;DHT22;38621;52.830;6.914;2023-12-04T12:05:43;2.30;99.90
52725;DHT22;38621;52.830;6.914;2023-12-04T12:08:09;2.30;99.90
52725;DHT22;38621;52.830;6.914;2023-12-04T12:10:36;2.30;99.90
52725;DHT22;38621;52.830;6.914;2023-12-04T12:13:02;2.30;99.90
52725;DHT22;38621;52.830;6.914;2023-12-04T12:15:28;2.30;99.90
52725;DHT22;38621;52.830;6.914;2023-12-04T12:17:54;2.70;99.90
52725;DHT22;38621;52.830;6.914;2023-12-04T12:20:20;2.60;99.90
52725;DHT22;38621;52.830;6.914;2023-12-04T12:22:47;2.50;99.90
52725;DHT22;38621;52.830;6.914;2023-12-04T12:25:13;2.40;99.90
52725;DHT22;38621;52.830;6.914;2023-12-04T12:27:39;2.40;99.90
52725;DHT22;38621;52.830;6.914;2023-12-04T12:30:06;2.40;99.90
52725;DHT22;38621;52.830;6.914;2023-12-04T12:32:33;2.40;99.90
52725;DHT22;38621;52.830;6.914;2023-12-04T12:34:59;2.70;99.90
52725;DHT22;38621;52.830;6.914;2023-12-04T12:37:25;2.40;99.90
52725;DHT22;38621;52.830;6.914;2023-12-04T12:39:51;2.40;99.90
52725;DHT22;38621;52.830;6.914;2023-12-04T12:42:21;2.50;99.90
52725;DHT22;38621;52.830;6.914;2023-12-04T12:44:48;2.50;99.90
52725;DHT22;38621;52.830;6.914;2023-12-04T12:47:17;2.50;99.90
52725;DHT22;38621;52.830;6.914;2023-12-04T12:49:43;2.50;99.90
52725;DHT22;38621;52.830;6.914;2023-12-04T12:52:10;2.40;99.90
52725;DHT22;38621;52.830;6.914;2023-12-04T12:54:43;2.50;99.90
52725;DHT22;38621;52.830;6.914;2023-12-04T12:57:10;2.50;99.90
52725;DHT22;38621;52.830;6.914;2023-12-04T12:59:40;2.40;99.90
52725;DHT22;38621;52.830;6.914;2023-12-04T13:02:07;2.40;99.90
52725;DHT22;38621;52.830;6.914;2023-12-04T13:04:43;2.30;99.90
52725;DHT22;38621;52.830;6.914;2023-12-04T13:07:09;2.30;99.90
52725;DHT22;38621;52.830;6.914;2023-12-04T13:09:36;2.30;99.90
52725;DHT22;38621;52.830;6.914;2023-12-04T13:12:06;2.30;99.90
52725;DHT22;38621;52.830;6.914;2023-12-04T13:14:35;2.20;99.90
52725;DHT22;38621;52.830;6.914;2023-12-04T13:17:01;2.20;99.90
52725;DHT22;38621;52.830;6.914;2023-12-04T13:19:27;2.70;99.90
52725;DHT22;38621;52.830;6.914;2023-12-04T13:21:53;2.30;99.90
52725;DHT22;38621;52.830;6.914;2023-12-04T13:24:19;2.20;99.90
52725;DHT22;38621;52.830;6.914;2023-12-04T13:26:45;2.20;99.90
52725;DHT22;38621;52.830;6.914;2023-12-04T13:29:12;2.20;99.90
52725;DHT22;38621;52.830;6.914;2023-12-04T13:31:41;2.20;99.90
52725;DHT22;38621;52.830;6.914;2023-12-04T13:34:06;2.20;99.90
52725;DHT22;38621;52.830;6.914;2023-12-04T13:36:35;2.10;99.90
52725;DHT22;38621;52.830;6.914;2023-12-04T13:39:02;2.10;99.90
52725;DHT22;38621;52.830;6.914;2023-12-04T13:41:30;2.10;99.90
52725;DHT22;38621;52.830;6.914;2023-12-04T13:44:15;2.60;99.90
52725;DHT22;38621;52.830;6.914;2023-12-04T13:46:41;2.30;99.90
52725;DHT22;38621;52.830;6.914;2023-12-04T13:49:07;2.00;99.90
52725;DHT22;38621;52.830;6.914;2023-12-04T13:51:32;2.00;99.90
52725;DHT22;38621;52.830;6.914;2023-12-04T13:53:59;2.50;99.90
52725;DHT22;38621;52.830;6.914;2023-12-04T13:56:35;2.00;99.90
52725;DHT22;38621;52.830;6.914;2023-12-04T13:59:21;2.30;99.90
52725;DHT22;38621;52.830;6.914;2023-12-04T14:01:50;2.00;99.90
52725;DHT22;38621;52.830;6.914;2023-12-04T14:04:17;1.90;99.90
52725;DHT22;38621;52.830;6.914;2023-12-04T14:06:43;1.90;99.90
52725;DHT22;38621;52.830;6.914;2023-12-04T14:09:08;1.90;99.90
52725;DHT22;38621;52.830;6.914;2023-12-04T14:11:43;1.90;99.90
52725;DHT22;38621;52.830;6.914;2023-12-04T14:14:10;1.90;99.90
52725;DHT22;38621;52.830;6.914;2023-12-04T14:16:36;1.80;99.90
52725;DHT22;38621;52.830;6.914;2023-12-04T14:19:01;1.80;99.90
52725;DHT22;38621;52.830;6.914;2023-12-04T14:21:28;1.80;99.90
52725;DHT22;38621;52.830;6.914;2023-12-04T14:23:53;1.80;99.90
52725;DHT22;38621;52.830;6.914;2023-12-04T14:26:19;1.80;99.90
52725;DHT22;38621;52.830;6.914;2023-12-04T14:28:45;2.10;99.90
52725;DHT22;38621;52.830;6.914;2023-12-04T14:31:11;1.70;99.90
52725;DHT22;38621;52.830;6.914;2023-12-04T14:33:36;1.70;99.90
52725;DHT22;38621;52.830;6.914;2023-12-04T14:36:03;1.70;99.90
52725;DHT22;38621;52.830;6.914;2023-12-04T14:38:29;1.70;99.90
52725;DHT22;38621;52.830;6.914;2023-12-04T14:40:55;1.80;99.90
52725;DHT22;38621;52.830;6.914;2023-12-04T14:43:21;1.60;99.90
52725;DHT22;38621;52.830;6.914;2023-12-04T14:45:46;2.40;99.90
52725;DHT22;38621;52.830;6.914;2023-12-04T14:48:13;1.60;99.90
52725;DHT22;38621;52.830;6.914;2023-12-04T14:50:39;1.60;99.90
52725;DHT22;38621;52.830;6.914;2023-12-04T14:53:05;1.90;99.90
52725;DHT22;38621;52.830;6.914;2023-12-04T14:55:56;1.90;99.90
52725;DHT22;38621;52.830;6.914;2023-12-04T14:58:37;1.70;99.90
52725;DHT22;38621;52.830;6.914;2023-12-04T15:01:06;1.60;99.90
52725;DHT22;38621;52.830;6.914;2023-12-04T15:03:54;1.60;99.90
52725;DHT22;38621;52.830;6.914;2023-12-04T15:06:39;1.50;99.90
52725;DHT22;38621;52.830;6.914;2023-12-04T15:09:05;1.60;99.90
52725;DHT22;38621;52.830;6.914;2023-12-04T15:11:49;1.80;99.90
52725;DHT22;38621;52.830;6.914;2023-12-04T15:14:33;1.50;99.90
52725;DHT22;38621;52.830;6.914;2023-12-04T15:17:17;1.50;99.90
52725;DHT22;38621;52.830;6.914;2023-12-04T15:19:58;1.50;99.90
52725;DHT22;38621;52.830;6.914;2023-12-04T15:22:55;2.10;99.90
52725;DHT22;38621;52.830;6.914;2023-12-04T15:25:21;1.40;99.90
52725;DHT22;38621;52.830;6.914;2023-12-04T15:27:47;1.40;99.90
52725;DHT22;38621;52.830;6.914;2023-12-04T15:30:12;1.80;99.90
52725;DHT22;38621;52.830;6.914;2023-12-04T15:32:39;1.30;99.90
52725;DHT22;38621;52.830;6.914;2023-12-04T15:35:06;1.40;99.90
52725;DHT22;38621;52.830;6.914;2023-12-04T15:37:32;1.30;99.90
52725;DHT22;38621;52.830;6.914;2023-12-04T15:39:59;1.80;99.90
52725;DHT22;38621;52.830;6.914;2023-12-04T15:42:24;1.30;99.90
52725;DHT22;38621;52.830;6.914;2023-12-04T15:44:50;1.30;99.90